National Weather Service Raw Text Product

Displaying AFOS PIL: TAFDSM Received: 2017-08-13 11:32 UTC


397 
FTUS43 KDMX 131132
TAFDSM
TAF
KDSM 131132Z 1312/1412 15008KT P6SM SCT060 BKN120
     FM131800 17012KT P6SM SCT080
     FM140800 15006KT P6SM VCSH SCT035=